createdAt,value
2019-03-23T00:00:24.636Z,4.03
2019-03-23T00:02:53.872Z,4.53
2019-03-23T00:05:23.045Z,4.90
2019-03-23T00:07:52.389Z,4.62
2019-03-23T00:10:21.600Z,6.97
2019-03-23T00:12:50.759Z,8.68
2019-03-23T00:15:19.882Z,6.28
2019-03-23T00:17:49.123Z,5.87
2019-03-23T00:20:18.244Z,8.28
2019-03-23T00:22:47.404Z,8.63
2019-03-23T00:25:16.703Z,6.78
2019-03-23T00:27:49.102Z,7.83
2019-03-23T00:30:18.419Z,7.70
2019-03-23T00:32:47.627Z,8.80
2019-03-23T00:35:17.029Z,7.95
2019-03-23T00:37:46.287Z,8.03
2019-03-23T00:40:15.411Z,9.53
2019-03-23T00:42:44.683Z,9.38
2019-03-23T00:45:13.897Z,9.85
2019-03-23T00:47:43.069Z,9.65
2019-03-23T00:50:12.291Z,9.00
2019-03-23T00:52:41.657Z,9.75
2019-03-23T00:55:11.194Z,9.40
2019-03-23T00:57:40.261Z,9.45
2019-03-23T01:00:11.390Z,9.43
2019-03-23T01:02:41.945Z,9.50
2019-03-23T01:05:11.482Z,9.60
2019-03-23T01:07:40.524Z,11.33
2019-03-23T01:10:13.349Z,11.95
2019-03-23T01:12:42.730Z,15.05
2019-03-23T01:15:13.257Z,16.65
2019-03-23T01:17:42.557Z,20.25
2019-03-23T01:20:12.508Z,20.77
2019-03-23T01:22:41.725Z,22.87
2019-03-23T01:25:11.172Z,22.02
2019-03-23T01:27:40.560Z,24.57
2019-03-23T01:30:16.521Z,24.65
2019-03-23T01:32:46.012Z,26.97
2019-03-23T01:35:15.281Z,28.70
2019-03-23T01:37:44.678Z,29.77
2019-03-23T01:40:14.460Z,26.45
2019-03-23T01:42:43.660Z,30.52
2019-03-23T01:45:13.261Z,29.67
2019-03-23T01:47:42.393Z,26.23
2019-03-23T01:50:12.134Z,27.93
2019-03-23T01:52:41.437Z,31.17
2019-03-23T01:55:10.733Z,32.42
2019-03-23T01:57:40.076Z,29.48
2019-03-23T02:00:11.320Z,30.60
2019-03-23T02:02:40.595Z,33.75
2019-03-23T02:05:10.018Z,33.75
2019-03-23T02:07:39.325Z,34.92
2019-03-23T02:10:10.092Z,33.78
2019-03-23T02:12:39.372Z,33.28
2019-03-23T02:15:10.258Z,33.25
2019-03-23T02:17:39.564Z,37.73
2019-03-23T02:20:11.056Z,37.10
2019-03-23T02:22:40.216Z,34.98
2019-03-23T02:25:09.588Z,39.10
2019-03-23T02:27:38.943Z,35.92
2019-03-23T02:30:10.543Z,36.88
2019-03-23T02:32:39.973Z,38.88
2019-03-23T02:35:09.401Z,35.68
2019-03-23T02:37:38.595Z,36.23
2019-03-23T02:40:11.517Z,35.83
2019-03-23T02:42:40.844Z,40.23
2019-03-23T02:45:12.168Z,39.67
2019-03-23T02:47:41.314Z,36.95
2019-03-23T02:50:11.116Z,37.15
2019-03-23T02:52:40.363Z,37.10
2019-03-23T02:55:10.033Z,32.83
2019-03-23T02:57:39.352Z,34.67
2019-03-23T03:00:13.007Z,32.33
2019-03-23T03:02:42.113Z,30.45
2019-03-23T03:05:11.406Z,31.27
2019-03-23T03:07:43.183Z,30.80
2019-03-23T03:10:12.145Z,34.27
2019-03-23T03:12:40.988Z,33.20
2019-03-23T03:15:10.761Z,33.53
2019-03-23T03:17:39.888Z,35.63
2019-03-23T03:20:10.281Z,34.58
2019-03-23T03:22:39.520Z,37.67
2019-03-23T03:25:08.886Z,37.80
2019-03-23T03:27:38.160Z,39.50
2019-03-23T03:30:11.396Z,39.90
2019-03-23T03:32:40.519Z,35.87
2019-03-23T03:35:09.969Z,37.45
2019-03-23T03:37:39.216Z,40.23
2019-03-23T03:40:09.518Z,38.02
2019-03-23T03:42:38.865Z,40.48
2019-03-23T03:45:08.880Z,40.40
2019-03-23T03:47:41.051Z,38.08
2019-03-23T03:50:09.035Z,45.38
2019-03-23T03:52:38.254Z,41.95
2019-03-23T03:55:08.611Z,43.40
2019-03-23T03:57:37.580Z,41.10
2019-03-23T04:00:07.708Z,43.52
2019-03-23T04:02:36.914Z,38.88
2019-03-23T04:05:06.767Z,37.15
2019-03-23T04:07:36.040Z,44.73
2019-03-23T04:10:06.869Z,41.20
2019-03-23T04:12:36.164Z,39.40
2019-03-23T04:15:07.344Z,44.10
2019-03-23T04:17:36.438Z,39.30
2019-03-23T04:20:06.973Z,38.65
2019-03-23T04:22:36.154Z,37.38
2019-03-23T04:25:06.852Z,38.70
2019-03-23T04:27:36.066Z,42.48
2019-03-23T04:30:07.307Z,46.10
2019-03-23T04:32:36.657Z,42.03
2019-03-23T04:35:06.706Z,41.15
2019-03-23T04:37:35.930Z,39.27
2019-03-23T04:40:06.808Z,40.75
2019-03-23T04:42:36.033Z,42.38
2019-03-23T04:45:07.025Z,42.27
2019-03-23T04:47:36.303Z,41.23
2019-03-23T04:50:10.294Z,41.48
2019-03-23T04:52:39.389Z,40.78
2019-03-23T04:55:12.500Z,41.80
2019-03-23T04:57:41.669Z,32.63
2019-03-23T05:00:13.972Z,42.08
2019-03-23T05:02:43.289Z,43.80
2019-03-23T05:05:12.897Z,38.15
2019-03-23T05:07:41.873Z,42.30
2019-03-23T05:10:11.524Z,40.00
2019-03-23T05:12:40.721Z,43.13
2019-03-23T05:15:10.094Z,45.55
2019-03-23T05:17:39.375Z,44.27
2019-03-23T05:20:10.344Z,41.83
2019-03-23T05:22:39.608Z,42.05
2019-03-23T05:25:11.800Z,48.42
2019-03-23T05:27:41.099Z,44.33
2019-03-23T05:30:10.452Z,42.90
2019-03-23T05:32:39.783Z,42.33
2019-03-23T05:35:08.957Z,43.23
2019-03-23T05:37:38.238Z,42.75
2019-03-23T05:40:07.597Z,45.60
2019-03-23T05:42:36.842Z,46.30
2019-03-23T05:45:09.273Z,50.50
2019-03-23T05:47:38.589Z,50.20
2019-03-23T05:50:08.133Z,47.13
2019-03-23T05:52:37.308Z,49.93
2019-03-23T05:55:06.634Z,47.45
2019-03-23T05:57:35.979Z,48.83
2019-03-23T06:00:07.041Z,47.33
2019-03-23T06:02:36.353Z,48.20
2019-03-23T06:05:06.851Z,49.25
2019-03-23T06:07:35.913Z,45.45
2019-03-23T06:10:07.061Z,48.68
2019-03-23T06:12:36.337Z,51.45
2019-03-23T06:15:06.116Z,41.90
2019-03-23T06:17:35.364Z,48.08
2019-03-23T06:20:05.711Z,47.13
2019-03-23T06:22:34.893Z,45.88
2019-03-23T06:25:05.592Z,41.37
2019-03-23T06:27:34.848Z,43.08
2019-03-23T06:30:04.505Z,44.77
2019-03-23T06:32:33.861Z,40.30
2019-03-23T06:35:03.112Z,43.35
2019-03-23T06:37:32.359Z,44.65
2019-03-23T06:40:01.573Z,40.92
2019-03-23T06:42:30.845Z,40.78
2019-03-23T06:45:00.045Z,46.42
2019-03-23T06:47:29.403Z,44.03
2019-03-23T06:49:58.781Z,46.40
2019-03-23T06:52:28.034Z,40.95
2019-03-23T06:54:57.300Z,46.58
2019-03-23T06:57:26.538Z,44.50
2019-03-23T06:59:55.681Z,41.60
2019-03-23T07:02:24.801Z,43.20
2019-03-23T07:04:54.070Z,44.20
2019-03-23T07:07:23.400Z,44.75
2019-03-23T07:09:52.750Z,40.15
2019-03-23T07:12:21.730Z,45.15
2019-03-23T07:14:51.137Z,47.83
2019-03-23T07:17:20.393Z,45.55
2019-03-23T07:19:49.488Z,44.40
2019-03-23T07:22:18.616Z,46.88
2019-03-23T07:24:47.912Z,44.23
2019-03-23T07:27:17.159Z,46.08
2019-03-23T07:29:46.332Z,38.45
2019-03-23T07:32:15.508Z,42.13
2019-03-23T07:34:44.794Z,42.35
2019-03-23T07:37:14.071Z,45.17
2019-03-23T07:39:43.210Z,44.03
2019-03-23T07:42:12.445Z,42.53
2019-03-23T07:44:41.754Z,43.10
2019-03-23T07:47:11.036Z,44.25
2019-03-23T07:49:40.189Z,44.03
2019-03-23T07:52:09.590Z,42.33
2019-03-23T07:54:38.857Z,39.95
2019-03-23T07:57:08.126Z,43.02
2019-03-23T07:59:37.251Z,39.42
2019-03-23T08:02:06.587Z,45.05
2019-03-23T08:04:35.802Z,45.67
2019-03-23T08:07:05.182Z,44.13
2019-03-23T08:09:37.867Z,45.35
2019-03-23T08:12:05.322Z,44.30
2019-03-23T08:14:36.165Z,43.95
2019-03-23T08:17:05.177Z,41.30
2019-03-23T08:19:34.431Z,44.33
2019-03-23T08:22:03.780Z,42.83
2019-03-23T08:24:32.987Z,41.77
2019-03-23T08:27:02.550Z,42.50
2019-03-23T08:29:31.544Z,44.35
2019-03-23T08:32:00.836Z,42.08
2019-03-23T08:34:30.097Z,44.05
2019-03-23T08:36:59.347Z,39.73
2019-03-23T08:39:28.672Z,44.30
2019-03-23T08:41:59.451Z,42.80
2019-03-23T08:44:28.697Z,46.65
2019-03-23T08:46:58.017Z,46.63
2019-03-23T08:49:28.648Z,43.68
2019-03-23T08:51:57.937Z,41.75
2019-03-23T08:54:27.070Z,45.75
2019-03-23T08:56:56.363Z,42.27
2019-03-23T08:59:25.677Z,44.27
2019-03-23T09:01:54.931Z,47.80
2019-03-23T09:04:24.130Z,48.33
2019-03-23T09:06:53.293Z,46.73
2019-03-23T09:09:22.731Z,48.00
2019-03-23T09:11:51.952Z,45.78
2019-03-23T09:14:23.407Z,48.60
2019-03-23T09:16:51.907Z,50.58
2019-03-23T09:19:21.230Z,47.80
2019-03-23T09:21:50.466Z,43.00
2019-03-23T09:24:19.698Z,46.65
2019-03-23T09:26:48.997Z,45.65
2019-03-23T09:29:18.237Z,50.55
2019-03-23T09:31:47.494Z,47.65
2019-03-23T09:34:16.685Z,45.00
2019-03-23T09:36:45.883Z,50.35
2019-03-23T09:39:15.049Z,48.68
2019-03-23T09:41:44.336Z,45.00
2019-03-23T09:44:13.461Z,47.35
2019-03-23T09:46:42.830Z,45.40
2019-03-23T09:49:12.198Z,46.55
2019-03-23T09:51:41.572Z,46.40
2019-03-23T09:54:10.829Z,49.20
2019-03-23T09:56:40.173Z,45.80
2019-03-23T09:59:09.486Z,44.27
2019-03-23T10:01:38.819Z,44.85
2019-03-23T10:04:08.022Z,49.45
2019-03-23T10:06:37.279Z,46.68
2019-03-23T10:09:07.152Z,45.70
2019-03-23T10:11:36.273Z,41.53
2019-03-23T10:14:05.361Z,42.62
2019-03-23T10:16:34.745Z,43.38
2019-03-23T10:19:03.996Z,44.05
2019-03-23T10:21:33.285Z,40.67
2019-03-23T10:24:02.556Z,36.33
2019-03-23T10:26:31.713Z,38.85
2019-03-23T10:29:00.918Z,37.67
2019-03-23T10:31:30.164Z,38.58
2019-03-23T10:33:59.265Z,42.60
2019-03-23T10:36:28.513Z,39.35
2019-03-23T10:38:57.684Z,39.42
2019-03-23T10:41:27.066Z,40.52
2019-03-23T10:43:56.169Z,38.78
2019-03-23T10:46:25.313Z,38.30
2019-03-23T10:48:54.651Z,38.80
2019-03-23T10:51:23.768Z,37.65
2019-03-23T10:53:52.983Z,39.27
2019-03-23T10:56:22.095Z,37.33
2019-03-23T10:58:51.365Z,37.10
2019-03-23T11:01:20.559Z,40.35
2019-03-23T11:03:49.713Z,40.83
2019-03-23T11:06:19.065Z,36.93
2019-03-23T11:08:48.264Z,31.68
2019-03-23T11:11:17.457Z,33.35
2019-03-23T11:13:46.757Z,37.40
2019-03-23T11:16:15.963Z,36.05
2019-03-23T11:18:45.263Z,36.90
2019-03-23T11:21:14.601Z,36.70
2019-03-23T11:23:45.493Z,36.08
2019-03-23T11:26:14.444Z,34.10
2019-03-23T11:28:43.495Z,34.23
2019-03-23T11:31:13.022Z,33.23
2019-03-23T11:33:42.289Z,34.75
2019-03-23T11:36:11.589Z,33.73
2019-03-23T11:38:40.811Z,32.00
2019-03-23T11:41:10.040Z,36.75
2019-03-23T11:43:39.296Z,34.40
2019-03-23T11:46:08.622Z,37.00
2019-03-23T11:48:37.752Z,32.15
2019-03-23T11:51:07.417Z,36.05
2019-03-23T11:53:36.677Z,32.63
2019-03-23T11:56:06.168Z,31.15
2019-03-23T11:58:35.376Z,34.45
2019-03-23T12:01:04.616Z,35.70
2019-03-23T12:03:33.979Z,32.03
2019-03-23T12:06:03.091Z,35.17
2019-03-23T12:08:32.278Z,31.48
2019-03-23T12:11:03.078Z,31.42
2019-03-23T12:13:32.231Z,33.60
2019-03-23T12:16:01.342Z,32.28
2019-03-23T12:18:30.471Z,28.87
2019-03-23T12:20:59.629Z,29.15
2019-03-23T12:23:29.014Z,28.35
2019-03-23T12:25:58.159Z,28.05
2019-03-23T12:28:27.493Z,27.45
2019-03-23T12:30:56.492Z,31.00
2019-03-23T12:33:25.709Z,27.30
2019-03-23T12:35:54.845Z,28.42
2019-03-23T12:38:24.045Z,28.98
2019-03-23T12:40:53.364Z,28.90
2019-03-23T12:43:22.696Z,28.62
2019-03-23T12:45:51.909Z,29.25
2019-03-23T12:48:21.156Z,27.32
2019-03-23T12:50:50.390Z,30.82
2019-03-23T12:53:19.692Z,29.50
2019-03-23T12:55:49.090Z,30.70
2019-03-23T12:58:18.260Z,28.02
2019-03-23T13:00:47.437Z,30.97
2019-03-23T13:03:16.800Z,28.17
2019-03-23T13:05:46.229Z,28.62
2019-03-23T13:08:15.352Z,29.57
2019-03-23T13:10:44.725Z,28.52
2019-03-23T13:13:13.930Z,31.52
2019-03-23T13:15:43.036Z,29.95
2019-03-23T13:18:12.393Z,30.85
2019-03-23T13:20:41.648Z,27.32
2019-03-23T13:23:12.662Z,28.50
2019-03-23T13:25:41.804Z,28.98
2019-03-23T13:28:11.269Z,27.20
2019-03-23T13:30:40.477Z,28.07
2019-03-23T13:33:09.611Z,27.45
2019-03-23T13:35:38.736Z,28.57
2019-03-23T13:38:08.061Z,27.77
2019-03-23T13:40:37.213Z,26.82
2019-03-23T13:43:06.528Z,26.05
2019-03-23T13:45:42.549Z,26.50
2019-03-23T13:48:06.617Z,26.37
2019-03-23T13:50:35.873Z,26.90
2019-03-23T13:53:05.252Z,25.57
2019-03-23T13:55:34.952Z,26.65
2019-03-23T13:58:09.279Z,28.47
2019-03-23T14:00:38.619Z,24.95
2019-03-23T14:03:08.373Z,27.48
2019-03-23T14:05:37.677Z,27.25
2019-03-23T14:08:06.773Z,25.62
2019-03-23T14:10:35.989Z,26.82
2019-03-23T14:13:05.303Z,29.57
2019-03-23T14:15:34.316Z,27.98
2019-03-23T14:18:03.486Z,26.82
2019-03-23T14:20:32.657Z,25.88
2019-03-23T14:23:02.941Z,28.57
2019-03-23T14:25:32.475Z,26.50
2019-03-23T14:28:01.963Z,27.73
2019-03-23T14:30:31.067Z,27.73
2019-03-23T14:33:00.339Z,27.35
2019-03-23T14:35:29.634Z,30.72
2019-03-23T14:37:58.792Z,30.88
2019-03-23T14:40:28.225Z,32.75
2019-03-23T14:42:57.413Z,31.87
2019-03-23T14:45:26.643Z,31.80
2019-03-23T14:47:55.889Z,31.12
2019-03-23T14:50:25.190Z,31.50
2019-03-23T14:52:54.337Z,28.60
2019-03-23T14:55:23.381Z,31.07
2019-03-23T14:57:52.612Z,29.40
2019-03-23T15:00:29.863Z,30.72
2019-03-23T15:02:59.160Z,30.17
2019-03-23T15:05:28.435Z,30.57
2019-03-23T15:07:57.725Z,32.38
2019-03-23T15:10:27.044Z,31.40
2019-03-23T15:12:56.232Z,30.68
2019-03-23T15:15:25.317Z,30.05
2019-03-23T15:17:54.588Z,28.80
2019-03-23T15:20:23.684Z,32.70
2019-03-23T15:22:52.953Z,30.92
2019-03-23T15:25:22.165Z,31.52
2019-03-23T15:27:51.272Z,29.52
2019-03-23T15:30:20.592Z,30.35
2019-03-23T15:32:49.847Z,28.47
2019-03-23T15:35:19.201Z,29.55
2019-03-23T15:37:48.283Z,28.70
2019-03-23T15:40:17.452Z,29.85
2019-03-23T15:42:46.633Z,29.00
2019-03-23T15:45:15.793Z,27.73
2019-03-23T15:47:44.967Z,29.05
2019-03-23T15:50:14.198Z,29.15
2019-03-23T15:52:43.456Z,27.35
2019-03-23T15:55:12.757Z,30.32
2019-03-23T15:57:41.876Z,30.95
2019-03-23T16:00:11.698Z,30.75
2019-03-23T16:02:40.979Z,31.20
2019-03-23T16:05:10.163Z,31.37
2019-03-23T16:07:39.366Z,30.95
2019-03-23T16:10:08.728Z,30.88
2019-03-23T16:12:38.082Z,30.92
2019-03-23T16:15:11.466Z,33.05
2019-03-23T16:17:40.752Z,29.63
2019-03-23T16:20:11.154Z,30.15
2019-03-23T16:22:40.366Z,30.35
2019-03-23T16:25:09.513Z,30.85
2019-03-23T16:27:38.775Z,30.60
2019-03-23T16:30:10.204Z,30.55
2019-03-23T16:32:39.448Z,29.63
2019-03-23T16:35:08.804Z,32.53
2019-03-23T16:37:37.908Z,32.95
2019-03-23T16:40:08.773Z,30.02
2019-03-23T16:42:45.142Z,30.95
2019-03-23T16:45:10.085Z,33.42
2019-03-23T16:47:39.248Z,29.92
2019-03-23T16:50:08.448Z,31.07
2019-03-23T16:52:38.411Z,31.23
2019-03-23T16:55:10.825Z,32.33
2019-03-23T16:57:40.014Z,31.35
2019-03-23T17:00:12.151Z,32.50
2019-03-23T17:02:41.466Z,31.15
2019-03-23T17:05:10.813Z,31.05
2019-03-23T17:07:40.078Z,32.15
2019-03-23T17:10:09.556Z,29.67
2019-03-23T17:12:38.854Z,29.20
2019-03-23T17:15:08.482Z,29.75
2019-03-23T17:17:37.543Z,29.72
2019-03-23T17:20:06.749Z,30.08
2019-03-23T17:22:35.949Z,30.37
2019-03-23T17:25:06.707Z,30.62
2019-03-23T17:27:36.043Z,31.82
2019-03-23T17:30:06.835Z,30.10
2019-03-23T17:32:36.540Z,31.90
2019-03-23T17:35:09.645Z,31.42
2019-03-23T17:37:38.818Z,31.25
2019-03-23T17:40:08.385Z,29.90
2019-03-23T17:42:37.599Z,29.92
2019-03-23T17:45:07.831Z,30.75
2019-03-23T17:47:37.136Z,29.75
2019-03-23T17:50:07.183Z,30.70
2019-03-23T17:52:36.429Z,29.98
2019-03-23T17:55:08.576Z,30.65
2019-03-23T17:57:37.992Z,31.30
2019-03-23T18:00:08.641Z,31.17
2019-03-23T18:02:38.463Z,29.80
2019-03-23T18:05:08.129Z,27.30
2019-03-23T18:07:37.364Z,29.60
2019-03-23T18:10:08.650Z,30.82
2019-03-23T18:12:37.859Z,32.45
2019-03-23T18:15:08.278Z,32.17
2019-03-23T18:17:37.485Z,33.25
2019-03-23T18:20:06.665Z,33.92
2019-03-23T18:22:35.769Z,34.78
2019-03-23T18:25:05.751Z,33.50
2019-03-23T18:27:35.991Z,33.95
2019-03-23T18:30:08.226Z,33.60
2019-03-23T18:32:37.504Z,34.70
2019-03-23T18:35:07.795Z,33.28
2019-03-23T18:37:36.933Z,32.93
2019-03-23T18:40:08.262Z,31.17
2019-03-23T18:42:37.579Z,29.85
2019-03-23T18:45:07.401Z,28.67
2019-03-23T18:47:36.557Z,22.80
2019-03-23T18:50:06.876Z,25.62
2019-03-23T18:52:35.976Z,22.32
2019-03-23T18:55:07.053Z,18.95
2019-03-23T18:57:36.257Z,16.85
2019-03-23T19:00:07.478Z,16.00
2019-03-23T19:02:36.743Z,14.33
2019-03-23T19:05:06.701Z,12.20
2019-03-23T19:07:35.869Z,10.58
2019-03-23T19:10:06.163Z,10.18
2019-03-23T19:12:35.590Z,11.33
2019-03-23T19:15:08.524Z,10.58
2019-03-23T19:17:39.775Z,11.30
2019-03-23T19:20:09.797Z,9.88
2019-03-23T19:22:40.164Z,9.85
2019-03-23T19:25:16.987Z,11.03
2019-03-23T19:27:42.062Z,10.85
2019-03-23T19:30:11.392Z,10.53
2019-03-23T19:32:41.889Z,11.45
2019-03-23T19:35:11.437Z,10.65
2019-03-23T19:37:40.678Z,12.65
2019-03-23T19:40:10.314Z,11.65
2019-03-23T19:42:39.675Z,11.40
2019-03-23T19:45:09.345Z,11.43
2019-03-23T19:47:38.537Z,11.35
2019-03-23T19:50:08.872Z,12.18
2019-03-23T19:52:38.037Z,11.95
2019-03-23T19:55:10.515Z,11.48
2019-03-23T19:57:39.868Z,11.57
2019-03-23T20:00:09.846Z,11.90
2019-03-23T20:02:39.363Z,11.88
2019-03-23T20:05:08.517Z,12.07
2019-03-23T20:07:37.871Z,12.55
2019-03-23T20:10:09.058Z,11.48
2019-03-23T20:12:39.431Z,12.93
2019-03-23T20:15:10.356Z,12.53
2019-03-23T20:17:39.736Z,11.80
2019-03-23T20:20:09.134Z,12.47
2019-03-23T20:22:38.546Z,12.40
2019-03-23T20:25:08.640Z,13.35
2019-03-23T20:27:37.983Z,11.30
2019-03-23T20:30:08.893Z,12.68
2019-03-23T20:32:38.336Z,10.93
2019-03-23T20:35:08.579Z,11.53
2019-03-23T20:37:37.789Z,11.15
2019-03-23T20:40:07.893Z,12.37
2019-03-23T20:42:37.316Z,11.60
2019-03-23T20:45:07.445Z,11.25
2019-03-23T20:47:37.395Z,10.03
2019-03-23T20:50:08.169Z,9.95
2019-03-23T20:52:37.404Z,9.58
2019-03-23T20:55:08.759Z,9.70
2019-03-23T20:57:38.365Z,9.68
2019-03-23T21:00:08.517Z,9.90
2019-03-23T21:02:38.029Z,8.80
2019-03-23T21:05:07.210Z,9.00
2019-03-23T21:07:37.353Z,9.15
2019-03-23T21:10:08.340Z,8.40
2019-03-23T21:12:38.197Z,8.60
2019-03-23T21:15:07.705Z,8.20
2019-03-23T21:17:36.942Z,7.97
2019-03-23T21:20:07.420Z,6.75
2019-03-23T21:22:37.644Z,6.80
2019-03-23T21:25:08.601Z,6.83
2019-03-23T21:27:38.640Z,6.80
2019-03-23T21:30:11.683Z,6.70
2019-03-23T21:32:41.008Z,6.15
2019-03-23T21:35:10.369Z,7.17
2019-03-23T21:37:39.738Z,6.50
2019-03-23T21:40:09.414Z,6.60
2019-03-23T21:42:39.082Z,7.45
2019-03-23T21:45:08.382Z,5.70
2019-03-23T21:47:37.741Z,6.05
2019-03-23T21:50:10.296Z,5.78
2019-03-23T21:52:39.748Z,5.35
2019-03-23T21:55:09.206Z,5.40
2019-03-23T21:57:38.438Z,5.65
2019-03-23T22:00:07.856Z,5.80
2019-03-23T22:02:36.920Z,5.03
2019-03-23T22:05:08.258Z,5.45
2019-03-23T22:07:37.567Z,5.12
2019-03-23T22:10:08.865Z,5.67
2019-03-23T22:12:38.280Z,5.42
2019-03-23T22:15:08.395Z,4.47
2019-03-23T22:17:37.729Z,4.42
2019-03-23T22:20:08.285Z,4.10
2019-03-23T22:22:37.713Z,4.58
2019-03-23T22:25:07.528Z,4.65
2019-03-23T22:27:37.657Z,5.40
2019-03-23T22:30:10.208Z,5.08
2019-03-23T22:32:39.489Z,4.62
2019-03-23T22:35:09.510Z,4.58
2019-03-23T22:37:38.729Z,4.55
2019-03-23T22:40:08.491Z,4.60
2019-03-23T22:42:37.703Z,4.22
2019-03-23T22:45:10.693Z,4.58
2019-03-23T22:47:39.796Z,4.50
2019-03-23T22:50:09.828Z,3.87
2019-03-23T22:52:39.027Z,5.00
2019-03-23T22:55:08.346Z,5.03
2019-03-23T22:57:37.592Z,3.90
2019-03-23T23:00:19.666Z,4.50
2019-03-23T23:02:48.903Z,4.80
2019-03-23T23:05:18.103Z,4.47
2019-03-23T23:07:47.437Z,4.00
2019-03-23T23:10:16.610Z,3.83
2019-03-23T23:12:45.994Z,4.67
2019-03-23T23:15:15.197Z,3.67
2019-03-23T23:17:44.273Z,5.08
2019-03-23T23:20:13.520Z,3.52
2019-03-23T23:22:42.762Z,4.10
2019-03-23T23:25:11.980Z,4.45
2019-03-23T23:27:41.257Z,4.72
2019-03-23T23:30:11.032Z,4.65
2019-03-23T23:32:40.275Z,5.50
2019-03-23T23:35:10.055Z,5.25
2019-03-23T23:37:39.404Z,5.47
2019-03-23T23:40:08.700Z,5.40
2019-03-23T23:42:38.013Z,6.25
2019-03-23T23:45:15.745Z,5.87
2019-03-23T23:47:41.942Z,5.40
2019-03-23T23:50:11.276Z,5.95
2019-03-23T23:52:40.501Z,5.00
2019-03-23T23:55:10.228Z,4.85
2019-03-23T23:57:39.547Z,5.50
